Time;durP1;ratioP1;P1;durP2;ratioP2;P2;SDS_P1;SDS_P2;PMS_P1;PMS_P2;Temp;Humidity;BMP_temperature;BMP_pressure;BME280_temperature;BME280_humidity;BME280_pressure;Samples;Min_cycle;Max_cycle;Signal;HPM_P1;HPM_P2
2022/11/03 00:01:52;;;;;;;19.27;4.90;;;6.90;1.00;;;;;;5052871;28;20417;-87
2022/11/03 00:04:23;;;;;;;14.10;5.60;;;6.80;1.00;;;;;;5052722;28;20449;-86
2022/11/03 00:10:11;;;;;;;12.90;4.70;;;6.80;1.00;;;;;;5042500;28;20820;-87
2022/11/03 00:15:59;;;;;;;11.27;4.50;;;6.80;1.00;;;;;;5047425;28;20218;-87
2022/11/03 00:18:46;;;;;;;14.70;5.33;;;6.80;1.00;;;;;;5052431;28;20434;-86
2022/11/03 00:27:57;;;;;;;13.20;5.90;;;6.90;1.00;;;;;;5053344;28;20775;-86
2022/11/03 00:30:22;;;;;;;13.70;4.43;;;6.90;1.00;;;;;;5052545;28;20454;-87
2022/11/03 00:32:48;;;;;;;16.73;5.30;;;6.90;1.00;;;;;;5053427;28;20379;-86
2022/11/03 00:35:23;;;;;;;12.80;5.10;;;6.90;1.00;;;;;;5047047;28;20815;-79
2022/11/03 00:37:59;;;;;;;19.10;4.70;;;6.90;1.00;;;;;;5047839;28;20677;-79
2022/11/03 00:40:29;;;;;;;14.70;4.23;;;6.80;1.00;;;;;;5040736;28;20942;-78
2022/11/03 00:42:55;;;;;;;12.23;4.60;;;6.80;1.00;;;;;;5049443;28;20516;-79
2022/11/03 00:45:29;;;;;;;10.47;4.20;;;6.70;1.00;;;;;;5053057;28;20441;-80
2022/11/03 00:51:29;;;;;;;11.77;4.20;;;6.60;1.00;;;;;;5054099;28;20472;-86
2022/11/03 00:57:18;;;;;;;10.40;3.93;;;6.50;1.00;;;;;;5042480;28;20519;-87
2022/11/03 00:59:53;;;;;;;8.17;3.83;;;6.40;1.00;;;;;;5054812;28;20426;-87
2022/11/03 01:02:19;;;;;;;12.37;3.97;;;6.30;1.00;;;;;;5038095;28;20899;-87
2022/11/03 01:07:28;;;;;;;9.33;4.27;;;6.30;1.00;;;;;;5041021;28;20414;-79
2022/11/03 01:10:11;;;;;;;15.97;4.30;;;6.20;1.00;;;;;;5035156;28;20403;-80
2022/11/03 01:12:47;;;;;;;13.70;4.00;;;6.10;1.00;;;;;;5055825;28;20175;-79
2022/11/03 01:15:34;;;;;;;18.27;4.60;;;6.10;1.00;;;;;;5056170;28;20461;-80
2022/11/03 01:18:11;;;;;;;7.00;4.10;;;6.10;1.00;;;;;;5049142;28;20559;-79
2022/11/03 01:20:41;;;;;;;9.97;3.80;;;6.10;1.00;;;;;;5040301;28;20427;-79
2022/11/03 01:23:34;;;;;;;13.23;4.10;;;6.00;1.00;;;;;;5055966;28;20430;-79
2022/11/03 01:26:12;;;;;;;11.93;4.40;;;6.00;1.00;;;;;;5043270;28;20765;-80
2022/11/03 01:29:22;;;;;;;13.33;4.07;;;6.00;1.00;;;;;;5055646;28;20776;-79
2022/11/03 01:32:11;;;;;;;7.07;3.90;;;5.90;1.00;;;;;;5046856;28;20423;-79
2022/11/03 01:37:58;;;;;;;10.83;3.70;;;5.90;1.00;;;;;;5040069;28;20434;-79
2022/11/03 01:40:52;;;;;;;8.17;4.10;;;5.90;1.00;;;;;;5041680;28;20418;-79
2022/11/03 01:43:23;;;;;;;20.23;3.83;;;5.90;1.00;;;;;;5057403;28;20168;-79
2022/11/03 01:46:08;;;;;;;12.73;4.73;;;5.80;1.00;;;;;;5054334;28;20902;-79
2022/11/03 01:48:40;;;;;;;11.40;3.70;;;5.80;1.00;;;;;;5035602;28;20407;-80
2022/11/03 01:51:52;;;;;;;11.73;4.37;;;5.80;1.00;;;;;;5052062;28;20418;-87
2022/11/03 01:57:49;;;;;;;9.20;4.80;;;5.70;1.00;;;;;;5044031;28;20865;-87
2022/11/03 02:01:04;;;;;;;8.73;4.07;;;5.60;1.00;;;;;;5056558;28;20503;-86
2022/11/03 02:04:25;;;;;;;16.87;3.97;;;5.70;1.00;;;;;;5035294;28;20403;-87
2022/11/03 02:07:17;;;;;;;8.67;3.83;;;5.60;1.00;;;;;;4993589;28;20855;-79
2022/11/03 02:09:42;;;;;;;11.80;4.30;;;5.50;1.00;;;;;;4983736;28;20519;-79
2022/11/03 02:12:09;;;;;;;12.63;4.20;;;5.50;1.00;;;;;;4992627;28;20651;-79
2022/11/03 02:14:50;;;;;;;7.87;3.50;;;5.50;1.00;;;;;;4991560;28;20537;-79
2022/11/03 02:17:20;;;;;;;11.40;4.20;;;5.50;1.00;;;;;;4992669;28;20505;-79
2022/11/03 02:20:24;;;;;;;10.57;4.10;;;5.50;1.00;;;;;;4992402;28;20453;-87
2022/11/03 02:29:33;;;;;;;15.10;4.90;;;5.40;1.00;;;;;;4999082;28;20420;-87
2022/11/03 02:35:37;;;;;;;12.37;4.30;;;5.30;1.00;;;;;;4986868;28;20232;-80
2022/11/03 02:38:15;;;;;;;8.33;4.03;;;5.30;1.00;;;;;;4993221;28;20424;-79
2022/11/03 02:40:53;;;;;;;13.33;4.40;;;5.30;1.00;;;;;;5007700;28;20517;-80
2022/11/03 02:43:37;;;;;;;14.63;4.50;;;5.10;1.00;;;;;;5052174;28;20795;-79
2022/11/03 02:46:13;;;;;;;23.50;4.73;;;5.20;1.00;;;;;;5034489;28;20423;-79
2022/11/03 02:48:53;;;;;;;13.87;4.03;;;5.20;1.00;;;;;;5034899;28;20444;-79
2022/11/03 02:58:05;;;;;;;9.97;5.00;;;5.10;1.00;;;;;;5055027;28;20194;-87
2022/11/03 03:01:17;;;;;;;8.33;4.30;;;5.10;1.00;;;;;;5054227;28;20505;-87
2022/11/03 03:04:23;;;;;;;15.80;4.25;;;5.00;1.00;;;;;;4957832;28;20429;-86
2022/11/03 03:07:10;;;;;;;5.82;4.13;;;5.00;1.00;;;;;;4973552;28;20678;-80
2022/11/03 03:09:54;;;;;;;10.85;4.35;;;4.90;1.00;;;;;;4962129;28;20179;-79
2022/11/03 03:12:38;;;;;;;7.03;4.35;;;4.90;1.00;;;;;;4972872;28;20186;-79
2022/11/03 03:15:22;;;;;;;10.15;4.10;;;4.90;1.00;;;;;;4973282;28;20229;-79
2022/11/03 03:18:14;;;;;;;20.73;3.63;;;4.90;1.00;;;;;;4962488;28;20197;-79
2022/11/03 03:20:51;;;;;;;8.20;3.97;;;4.90;1.00;;;;;;4954446;29;20435;-80
2022/11/03 03:23:35;;;;;;;19.27;4.60;;;5.00;1.00;;;;;;4976903;28;21028;-79
2022/11/03 03:26:15;;;;;;;9.00;4.20;;;4.90;1.00;;;;;;4956779;28;20936;-80
2022/11/03 03:29:16;;;;;;;6.90;3.80;;;4.90;1.00;;;;;;4972644;28;20521;-79
2022/11/03 03:32:05;;;;;;;12.00;4.32;;;4.90;1.00;;;;;;4934176;29;20470;-79
2022/11/03 03:34:39;;;;;;;14.60;4.80;;;4.80;1.00;;;;;;4928114;29;20587;-79
2022/11/03 03:37:29;;;;;;;12.63;4.20;;;4.80;1.00;;;;;;4959710;28;20954;-88
2022/11/03 03:46:47;;;;;;;13.23;4.20;;;4.70;1.00;;;;;;5011971;28;20675;-88
2022/11/03 03:52:47;;;;;;;21.60;4.70;;;4.80;1.00;;;;;;5008321;28;20399;-79
2022/11/03 03:55:36;;;;;;;11.13;3.80;;;4.70;1.00;;;;;;5001422;28;20460;-79
2022/11/03 03:58:06;;;;;;;12.87;3.90;;;4.60;1.00;;;;;;5008429;28;20429;-79
2022/11/03 04:00:38;;;;;;;8.32;4.50;;;4.60;1.00;;;;;;5005209;28;20470;-79
2022/11/03 04:03:11;;;;;;;9.10;4.17;;;4.70;1.00;;;;;;5011718;28;20667;-80
2022/11/03 04:08:58;;;;;;;7.10;3.67;;;4.60;1.00;;;;;;5047210;28;20211;-87
2022/11/03 04:23:41;;;;;;;15.50;4.70;;;4.60;1.00;;;;;;5048000;28;20441;-87
2022/11/03 04:30:05;;;;;;;7.35;4.25;;;4.50;1.00;;;;;;5043185;28;20493;-79
2022/11/03 04:32:49;;;;;;;9.88;4.43;;;4.50;1.00;;;;;;5036606;28;20250;-81
2022/11/03 04:35:29;;;;;;;12.35;4.15;;;4.50;1.00;;;;;;5042181;28;20231;-81
2022/11/03 04:38:08;;;;;;;9.60;4.40;;;4.50;1.00;;;;;;5043619;28;20174;-79
2022/11/03 04:40:59;;;;;;;9.90;4.30;;;4.50;1.00;;;;;;5067211;28;20425;-79
2022/11/03 04:43:33;;;;;;;14.40;4.97;;;4.50;1.00;;;;;;5047233;28;20475;-78
2022/11/03 04:45:59;;;;;;;9.82;3.85;;;4.50;1.00;;;;;;5059968;28;20436;-78
2022/11/03 04:48:35;;;;;;;8.98;4.10;;;4.50;1.00;;;;;;5040722;28;20588;-79
2022/11/03 04:51:13;;;;;;;16.00;4.53;;;4.50;1.00;;;;;;5037074;28;20180;-79
2022/11/03 04:53:57;;;;;;;11.95;4.20;;;4.50;1.00;;;;;;5039532;28;20674;-78
2022/11/03 04:56:24;;;;;;;9.48;4.45;;;4.40;1.00;;;;;;5052863;28;20204;-78
2022/11/03 04:59:11;;;;;;;6.72;3.83;;;4.40;1.00;;;;;;5050814;28;20267;-78
2022/11/03 05:02:08;;;;;;;12.63;4.45;;;4.30;1.00;;;;;;5046969;28;20172;-78
2022/11/03 05:04:34;;;;;;;11.73;4.20;;;4.30;1.00;;;;;;5069559;28;20232;-79
2022/11/03 05:06:59;;;;;;;6.87;3.83;;;4.30;1.00;;;;;;5059881;28;20585;-79
2022/11/03 05:09:34;;;;;;;5.33;3.70;;;4.30;1.00;;;;;;5036082;28;20235;-79
2022/11/03 05:12:00;;;;;;;11.10;4.53;;;4.20;1.00;;;;;;5050011;28;20335;-79
2022/11/03 05:14:29;;;;;;;9.13;4.20;;;4.20;1.00;;;;;;5048929;28;20430;-79
2022/11/03 05:17:24;;;;;;;7.90;3.90;;;4.30;1.00;;;;;;5039512;28;20197;-79
2022/11/03 05:20:01;;;;;;;7.30;4.13;;;4.20;1.00;;;;;;5050830;28;20183;-79
2022/11/03 05:22:47;;;;;;;12.50;4.38;;;4.20;1.00;;;;;;5051987;28;20176;-79
2022/11/03 05:25:40;;;;;;;8.55;4.00;;;4.20;1.00;;;;;;5039878;28;20176;-78
2022/11/03 05:28:26;;;;;;;10.07;3.80;;;4.20;1.00;;;;;;5049812;28;20524;-78
2022/11/03 05:30:59;;;;;;;23.17;4.13;;;4.10;1.00;;;;;;5056164;28;20206;-78
2022/11/03 05:33:34;;;;;;;11.35;4.05;;;4.20;1.00;;;;;;5047950;28;20188;-78
2022/11/03 05:36:24;;;;;;;10.35;4.10;;;4.20;1.00;;;;;;5041683;28;20254;-78
2022/11/03 05:39:16;;;;;;;12.57;4.20;;;4.20;1.00;;;;;;5046132;28;20282;-79
2022/11/03 05:41:47;;;;;;;17.95;4.47;;;4.20;1.00;;;;;;5044307;28;20179;-78
2022/11/03 05:44:35;;;;;;;12.07;4.05;;;4.20;1.00;;;;;;5046531;28;20233;-78
2022/11/03 05:47:13;;;;;;;7.68;3.70;;;4.10;1.00;;;;;;5035732;28;20180;-79
2022/11/03 05:49:59;;;;;;;7.72;4.20;;;4.10;1.00;;;;;;5048136;28;20246;-78
2022/11/03 05:52:44;;;;;;;7.90;3.75;;;4.10;1.00;;;;;;5043731;28;20263;-85
2022/11/03 05:55:23;;;;;;;11.75;3.83;;;4.00;1.00;;;;;;5047118;28;20226;-85
2022/11/03 05:58:35;;;;;;;13.05;4.10;;;4.00;1.00;;;;;;5049561;28;20172;-83
2022/11/03 06:04:33;;;;;;;18.73;4.60;;;4.00;1.00;;;;;;4984965;28;20182;-84
2022/11/03 06:07:29;;;;;;;9.00;4.53;;;4.10;1.00;;;;;;4976368;28;20201;-82
2022/11/03 06:10:28;;;;;;;9.95;4.43;;;4.00;1.00;;;;;;4993968;28;20375;-81
2022/11/03 06:13:19;;;;;;;11.55;4.50;;;4.00;1.00;;;;;;4993992;28;20190;-81
2022/11/03 06:15:52;;;;;;;11.43;4.72;;;4.10;1.00;;;;;;4977220;28;20639;-81
2022/11/03 06:18:53;;;;;;;14.70;4.75;;;4.10;1.00;;;;;;4990558;28;20185;-81
2022/11/03 06:24:42;;;;;;;13.88;4.43;;;4.10;1.00;;;;;;4992834;28;20178;-81
2022/11/03 06:30:32;;;;;;;7.15;4.03;;;4.20;1.00;;;;;;4991787;28;20212;-81
2022/11/03 06:33:12;;;;;;;8.80;4.28;;;4.20;1.00;;;;;;4988269;28;20192;-71
2022/11/03 06:35:38;;;;;;;10.50;4.38;;;4.10;1.00;;;;;;5043046;28;20290;-71
2022/11/03 06:38:15;;;;;;;8.95;4.70;;;4.10;1.00;;;;;;5052271;28;20178;-77
2022/11/03 06:40:41;;;;;;;9.68;3.92;;;4.10;1.00;;;;;;5044145;28;20717;-77
2022/11/03 06:43:27;;;;;;;12.95;3.67;;;4.20;1.00;;;;;;5047776;28;20229;-77
2022/11/03 06:45:57;;;;;;;11.70;3.97;;;4.30;1.00;;;;;;5052454;28;20187;-77
2022/11/03 06:48:28;;;;;;;13.52;3.90;;;4.30;1.00;;;;;;5053980;28;20642;-77
2022/11/03 06:51:26;;;;;;;13.93;4.15;;;4.40;1.00;;;;;;5043385;28;20246;-77
2022/11/03 06:53:54;;;;;;;10.75;4.10;;;4.40;1.00;;;;;;4980581;28;20547;-76
2022/11/03 06:56:34;;;;;;;10.23;4.10;;;4.50;1.00;;;;;;4993245;28;20229;-77
2022/11/03 06:59:10;;;;;;;14.82;4.68;;;4.50;1.00;;;;;;4973386;28;20437;-77
2022/11/03 07:01:36;;;;;;;9.93;4.82;;;4.70;1.00;;;;;;4992285;28;20174;-77
2022/11/03 07:04:17;;;;;;;19.70;7.17;;;4.70;1.00;;;;;;4984418;28;20675;-77
2022/11/03 07:06:48;;;;;;;9.18;6.68;;;4.70;1.00;;;;;;4993167;28;20456;-77
2022/11/03 07:09:22;;;;;;;9.43;5.00;;;4.90;1.00;;;;;;4992778;28;20276;-77
2022/11/03 07:11:59;;;;;;;11.37;4.40;;;5.00;1.00;;;;;;4976061;28;20188;-77
2022/11/03 07:14:42;;;;;;;7.63;4.40;;;5.10;1.00;;;;;;4992291;28;20459;-77
2022/11/03 07:17:21;;;;;;;7.60;4.03;;;5.20;1.00;;;;;;4993088;28;20472;-78
2022/11/03 07:19:47;;;;;;;10.40;4.20;;;5.30;1.00;;;;;;4991702;28;20440;-77
2022/11/03 07:22:25;;;;;;;12.13;4.20;;;5.30;1.00;;;;;;4989873;28;21905;-77
2022/11/03 07:24:53;;;;;;;10.63;4.20;;;5.50;1.00;;;;;;4992736;28;20217;-77
2022/11/03 07:27:22;;;;;;;17.50;4.83;;;5.70;1.00;;;;;;4991958;28;20495;-88
2022/11/03 07:30:19;;;;;;;20.63;6.30;;;5.80;1.00;;;;;;5014335;28;20434;-87
2022/11/03 07:32:51;;;;;;;10.83;5.30;;;6.00;1.00;;;;;;5052720;28;20459;-86
2022/11/03 07:35:28;;;;;;;10.43;4.10;;;6.10;1.00;;;;;;5034499;28;20439;-86
2022/11/03 07:38:19;;;;;;;9.67;4.37;;;6.20;1.00;;;;;;5049709;28;20774;-81
2022/11/03 07:40:50;;;;;;;14.00;5.00;;;6.30;1.00;;;;;;5053412;28;20869;-81
2022/11/03 07:43:30;;;;;;;7.50;3.67;;;6.50;1.00;;;;;;5046981;28;20411;-81
2022/11/03 07:46:47;;;;;;;11.30;3.70;;;6.50;1.00;;;;;;5048658;28;20409;-80
2022/11/03 07:49:27;;;;;;;8.17;4.30;;;6.70;1.00;;;;;;5043743;28;20480;-80
2022/11/03 07:52:22;;;;;;;11.10;4.83;;;6.80;1.00;;;;;;5053622;28;20390;-81
2022/11/03 07:54:49;;;;;;;8.50;3.40;;;7.00;1.00;;;;;;5048629;28;20439;-89
2022/11/03 07:57:38;;;;;;;8.10;3.77;;;7.20;1.00;;;;;;5052765;28;20785;-89
2022/11/03 08:00:23;;;;;;;9.00;4.07;;;7.40;1.00;;;;;;5051450;28;20422;-89
2022/11/03 08:06:11;;;;;;;7.80;3.53;;;7.80;1.00;;;;;;5049831;28;20507;-88
2022/11/03 08:08:42;;;;;;;11.37;4.00;;;8.00;1.00;;;;;;5053353;28;20446;-81
2022/11/03 08:11:12;;;;;;;8.63;3.50;;;8.10;1.00;;;;;;5043279;28;20830;-81
2022/11/03 08:13:48;;;;;;;7.50;3.70;;;8.30;1.00;;;;;;5039119;28;20422;-81
2022/11/03 08:16:18;;;;;;;8.67;4.23;;;8.50;1.00;;;;;;5055377;28;20554;-81
2022/11/03 08:19:05;;;;;;;9.23;4.10;;;8.60;1.00;;;;;;5044144;28;20418;-81
2022/11/03 08:21:41;;;;;;;12.67;4.37;;;8.80;1.00;;;;;;5055804;28;21020;-81
2022/11/03 08:24:17;;;;;;;7.83;3.90;;;9.10;1.00;;;;;;5048082;28;20464;-82
2022/11/03 08:26:48;;;;;;;10.20;4.70;;;9.30;1.00;;;;;;5043567;28;20992;-81
2022/11/03 08:29:17;;;;;;;7.23;3.70;;;9.40;1.00;;;;;;5055665;28;20468;-80
2022/11/03 08:31:47;;;;;;;5.93;3.20;;;9.60;1.00;;;;;;5057032;28;20430;-81
2022/11/03 08:34:18;;;;;;;7.03;3.20;;;9.70;1.00;;;;;;5042218;28;20423;-81
2022/11/03 08:36:43;;;;;;;14.20;3.80;;;9.90;1.00;;;;;;5048190;28;20605;-82
2022/11/03 08:39:09;;;;;;;8.13;3.70;;;9.90;1.00;;;;;;5040261;28;21052;-89
2022/11/03 08:41:53;;;;;;;5.87;3.23;;;10.00;1.00;;;;;;5038699;28;20709;-89
2022/11/03 08:44:19;;;;;;;9.33;3.90;;;10.10;1.00;;;;;;5047740;28;20188;-88
2022/11/03 08:50:07;;;;;;;10.07;3.30;;;10.20;1.00;;;;;;5046925;28;20720;-88
2022/11/03 08:52:32;;;;;;;4.57;3.13;;;10.30;1.00;;;;;;5036466;28;20403;-89
2022/11/03 08:58:21;;;;;;;9.43;4.00;;;10.30;1.00;;;;;;5043088;28;20187;-88
2022/11/03 09:01:23;;;;;;;7.83;3.17;;;10.30;1.00;;;;;;5045429;28;20509;-89
2022/11/03 09:04:05;;;;;;;13.40;3.83;;;10.50;1.00;;;;;;5043356;28;20423;-89
2022/11/03 09:10:29;;;;;;;11.33;3.87;;;10.60;1.00;;;;;;5051732;28;20409;-81
2022/11/03 09:13:00;;;;;;;11.17;3.90;;;10.70;1.00;;;;;;5054224;28;20414;-80
2022/11/03 09:15:30;;;;;;;5.43;3.37;;;10.80;1.00;;;;;;5041457;28;20461;-81
2022/11/03 09:17:56;;;;;;;7.03;3.57;;;11.00;1.00;;;;;;5043199;28;20430;-81
2022/11/03 09:20:59;;;;;;;10.73;3.30;;;11.20;1.00;;;;;;5042773;28;20426;-80
2022/11/03 09:23:36;;;;;;;9.17;3.53;;;11.30;1.00;;;;;;5046516;28;20666;-88
2022/11/03 09:26:17;;;;;;;7.43;3.67;;;11.50;1.00;;;;;;5041340;28;21004;-81
2022/11/03 09:29:17;;;;;;;10.20;3.40;;;11.60;1.00;;;;;;5042422;28;20426;-80
2022/11/03 09:31:48;;;;;;;10.77;4.30;;;11.80;1.00;;;;;;5042443;28;20449;-81
2022/11/03 09:34:13;;;;;;;11.07;3.90;;;11.90;1.00;;;;;;5044961;28;20469;-81
2022/11/03 09:36:39;;;;;;;4.53;2.97;;;12.10;1.00;;;;;;5052007;28;20496;-81
2022/11/03 09:43:17;;;;;;;8.30;3.77;;;12.40;1.00;;;;;;5041158;28;20214;-87
2022/11/03 09:45:59;;;;;;;7.70;3.40;;;12.60;1.00;;;;;;5044916;28;20861;-88
2022/11/03 09:48:35;;;;;;;10.60;4.03;;;12.70;1.00;;;;;;5040190;28;20503;-88
2022/11/03 09:51:01;;;;;;;6.93;2.87;;;12.80;1.00;;;;;;5046799;28;20416;-89
2022/11/03 09:57:25;;;;;;;7.03;3.50;;;13.00;1.00;;;;;;5050980;28;20230;-88
2022/11/03 09:59:51;;;;;;;10.57;3.83;;;13.00;1.00;;;;;;5055701;28;20433;-88
2022/11/03 10:02:42;;;;;;;12.37;3.07;;;13.00;1.00;;;;;;5054763;28;20422;-88
2022/11/03 10:05:08;;;;;;;7.90;3.90;;;13.10;1.00;;;;;;5038560;28;20207;-87
2022/11/03 10:08:01;;;;;;;8.60;3.87;;;13.30;1.00;;;;;;5037317;28;20922;-88
2022/11/03 10:10:48;;;;;;;14.50;3.97;;;13.50;1.00;;;;;;5041553;28;20433;-88
2022/11/03 10:13:51;;;;;;;7.80;4.10;;;13.70;1.00;;;;;;5054746;28;20421;-88
2022/11/03 10:16:30;;;;;;;7.43;3.67;;;13.90;1.00;;;;;;5038178;28;20454;-88
2022/11/03 10:19:47;;;;;;;8.60;3.47;;;14.10;1.00;;;;;;5054212;28;20790;-89
2022/11/03 10:22:19;;;;;;;9.63;3.70;;;14.40;1.00;;;;;;5054840;28;20395;-88
2022/11/03 10:24:49;;;;;;;7.70;3.70;;;14.70;1.00;;;;;;5046533;28;20415;-80
2022/11/03 10:27:30;;;;;;;8.87;3.60;;;15.00;1.00;;;;;;5053434;28;20401;-81
2022/11/03 10:30:11;;;;;;;13.60;4.03;;;15.30;1.00;;;;;;5041801;28;20381;-80
2022/11/03 10:32:42;;;;;;;7.60;3.90;;;15.50;1.00;;;;;;5049259;28;20380;-80
2022/11/03 10:35:35;;;;;;;10.10;3.30;;;15.70;1.00;;;;;;5047135;28;20468;-80
2022/11/03 10:38:35;;;;;;;6.53;3.23;;;15.80;1.00;;;;;;5048770;28;20977;-79
2022/11/03 10:41:30;;;;;;;10.60;3.50;;;15.90;1.00;;;;;;5045613;28;20437;-82
2022/11/03 10:44:27;;;;;;;5.33;3.23;;;16.10;1.00;;;;;;5043674;28;20427;-80
2022/11/03 10:46:59;;;;;;;11.97;2.93;;;16.30;1.00;;;;;;5000014;28;20428;-80
2022/11/03 10:49:36;;;;;;;6.30;2.70;;;16.40;1.00;;;;;;5012395;28;20400;-80
2022/11/03 10:52:14;;;;;;;6.03;2.70;;;16.60;1.00;;;;;;4985563;28;20414;-80
2022/11/03 10:54:49;;;;;;;9.23;3.53;;;16.70;1.00;;;;;;5012360;28;20399;-79
2022/11/03 10:57:31;;;;;;;10.33;3.13;;;16.70;1.00;;;;;;5022344;28;20449;-79
2022/11/03 11:00:29;;;;;;;8.67;2.73;;;16.70;1.00;;;;;;4983473;28;20945;-80
2022/11/03 11:02:59;;;;;;;5.33;2.70;;;16.60;1.00;;;;;;5012516;28;20400;-79
2022/11/03 11:05:24;;;;;;;8.63;2.57;;;16.60;1.00;;;;;;5002027;28;20460;-80
2022/11/03 11:08:08;;;;;;;5.03;2.83;;;16.60;1.00;;;;;;5022525;28;20436;-79
2022/11/03 11:10:34;;;;;;;10.50;2.53;;;16.60;1.00;;;;;;4995692;28;20653;-79
2022/11/03 11:13:21;;;;;;;8.13;2.97;;;16.60;1.00;;;;;;5000157;28;20796;-80
2022/11/03 11:15:49;;;;;;;5.80;2.70;;;16.60;1.00;;;;;;4990817;28;20946;-80
2022/11/03 11:18:27;;;;;;;6.63;2.40;;;16.60;1.00;;;;;;5004154;28;20400;-80
2022/11/03 11:20:54;;;;;;;4.90;2.90;;;16.60;1.00;;;;;;5012214;28;20392;-80
2022/11/03 11:23:26;;;;;;;8.97;3.23;;;16.40;1.00;;;;;;5023889;28;20394;-81
2022/11/03 11:26:23;;;;;;;9.50;2.80;;;16.40;1.00;;;;;;5041865;28;20436;-80
2022/11/03 11:29:12;;;;;;;6.00;2.73;;;16.40;1.00;;;;;;4972903;28;20488;-79
2022/11/03 11:31:39;;;;;;;7.23;2.60;;;16.50;1.00;;;;;;4943895;28;20431;-79
2022/11/03 11:34:20;;;;;;;7.70;2.73;;;16.50;1.00;;;;;;4973008;28;20455;-80
2022/11/03 11:37:17;;;;;;;10.83;2.83;;;16.60;1.00;;;;;;4970277;28;20471;-79
2022/11/03 11:39:54;;;;;;;8.37;2.63;;;16.70;1.00;;;;;;4972037;28;20430;-79
2022/11/03 11:49:07;;;;;;;10.50;2.87;;;16.70;1.00;;;;;;4963953;28;20957;-86
2022/11/03 11:51:41;;;;;;;5.47;2.97;;;16.70;1.00;;;;;;4973530;28;20430;-87
2022/11/03 11:54:24;;;;;;;11.30;2.70;;;16.70;1.00;;;;;;4973388;28;20442;-87
2022/11/03 11:56:49;;;;;;;8.00;3.30;;;16.70;1.00;;;;;;4973879;28;20521;-86
2022/11/03 11:59:48;;;;;;;6.00;2.70;;;16.60;1.00;;;;;;4973625;28;20919;-86
2022/11/03 12:02:22;;;;;;;6.73;3.10;;;16.60;1.00;;;;;;4948124;28;20215;-86
2022/11/03 12:04:53;;;;;;;8.93;3.23;;;16.40;1.00;;;;;;4982130;28;20459;-86
2022/11/03 12:08:11;;;;;;;10.23;2.57;;;16.20;1.00;;;;;;5046422;28;20443;-86
2022/11/03 12:11:17;;;;;;;10.07;2.57;;;16.20;1.00;;;;;;5050049;28;20401;-86
2022/11/03 12:14:37;;;;;;;8.17;2.67;;;16.10;1.00;;;;;;5032986;28;20390;-86
2022/11/03 12:17:38;;;;;;;6.77;2.70;;;16.10;1.00;;;;;;5006605;28;20495;-86
2022/11/03 12:20:42;;;;;;;4.90;2.50;;;16.10;1.00;;;;;;4934528;29;20506;-86
2022/11/03 12:23:42;;;;;;;8.20;2.90;;;16.00;1.00;;;;;;4934894;29;20401;-86
2022/11/03 12:26:47;;;;;;;15.43;2.93;;;16.10;1.00;;;;;;4916748;29;20430;-80
2022/11/03 12:29:24;;;;;;;4.23;2.73;;;16.10;1.00;;;;;;4924067;29;20443;-79
2022/11/03 12:31:50;;;;;;;7.70;3.30;;;16.20;1.00;;;;;;4946764;29;20910;-79
2022/11/03 12:34:18;;;;;;;7.70;2.77;;;16.20;1.00;;;;;;4930689;29;20513;-79
2022/11/03 12:36:44;;;;;;;6.07;3.27;;;16.20;1.00;;;;;;4926120;29;20495;-79
2022/11/03 12:39:18;;;;;;;8.50;3.07;;;16.30;1.00;;;;;;4925907;29;20451;-79
2022/11/03 12:41:43;;;;;;;4.03;2.80;;;16.30;1.00;;;;;;4940174;29;20978;-93
2022/11/03 12:44:47;;;;;;;6.17;2.67;;;16.30;1.00;;;;;;4945338;29;20522;-93
2022/11/03 12:47:19;;;;;;;7.50;2.73;;;16.30;1.00;;;;;;4938226;29;20194;-81
2022/11/03 12:49:48;;;;;;;8.43;3.10;;;16.30;1.00;;;;;;4937234;29;20429;-83
2022/11/03 12:52:47;;;;;;;4.70;2.60;;;16.10;1.00;;;;;;4972708;28;20790;-85
2022/11/03 12:55:47;;;;;;;6.77;2.53;;;16.20;1.00;;;;;;4991339;28;20451;-88
2022/11/03 12:58:18;;;;;;;5.70;2.90;;;16.10;1.00;;;;;;5042428;28;20409;-80
2022/11/03 13:00:48;;;;;;;11.53;2.90;;;16.20;1.00;;;;;;5048705;28;20411;-81
2022/11/03 13:03:42;;;;;;;7.20;2.80;;;16.20;1.00;;;;;;5051918;28;20976;-81
2022/11/03 13:06:18;;;;;;;7.93;2.50;;;16.30;1.00;;;;;;5041201;28;20512;-82
2022/11/03 13:08:54;;;;;;;8.40;3.27;;;16.30;1.00;;;;;;5051955;28;20455;-90
2022/11/03 13:14:06;;;;;;;7.83;2.70;;;16.20;1.00;;;;;;5055355;28;20424;-70
2022/11/03 13:16:32;;;;;;;12.50;2.63;;;16.30;1.00;;;;;;5042348;28;20779;-70
2022/11/03 13:18:58;;;;;;;11.13;2.77;;;16.30;1.00;;;;;;5055454;28;20945;-70
2022/11/03 13:21:47;;;;;;;14.30;2.83;;;16.40;1.00;;;;;;5052593;28;20449;-87
2022/11/03 13:24:18;;;;;;;6.27;2.57;;;16.40;1.00;;;;;;5050770;28;20581;-81
2022/11/03 13:26:48;;;;;;;5.80;2.40;;;16.40;1.00;;;;;;5055018;28;20936;-83
2022/11/03 13:29:24;;;;;;;5.27;2.63;;;16.30;1.00;;;;;;5048815;28;20435;-85
2022/11/03 13:31:49;;;;;;;9.60;3.00;;;16.20;1.00;;;;;;5064307;28;20465;-89
2022/11/03 13:34:18;;;;;;;4.77;2.40;;;16.20;1.00;;;;;;5048462;28;20803;-83
2022/11/03 13:36:48;;;;;;;5.83;2.47;;;16.20;1.00;;;;;;5055877;28;20271;-76
2022/11/03 13:39:18;;;;;;;8.40;2.50;;;16.20;1.00;;;;;;5050529;28;20483;-75
2022/11/03 13:41:43;;;;;;;14.97;2.90;;;16.20;1.00;;;;;;5043127;28;20398;-85
2022/11/03 13:44:47;;;;;;;8.20;2.70;;;16.30;1.00;;;;;;5039701;28;20883;-85
2022/11/03 13:47:47;;;;;;;5.40;2.97;;;16.30;1.00;;;;;;5050156;28;20181;-85
2022/11/03 13:50:18;;;;;;;7.17;2.60;;;16.10;1.00;;;;;;5055431;28;20418;-85
2022/11/03 13:52:48;;;;;;;5.93;3.13;;;16.00;1.00;;;;;;5048209;28;20422;-85
2022/11/03 13:55:18;;;;;;;5.80;2.50;;;15.90;1.00;;;;;;5048230;28;20419;-85
2022/11/03 13:58:23;;;;;;;6.43;2.63;;;15.80;1.00;;;;;;5055169;28;20401;-85
2022/11/03 14:00:54;;;;;;;6.20;2.60;;;15.80;1.00;;;;;;5048417;28;20437;-85
2022/11/03 14:03:19;;;;;;;6.27;2.70;;;15.70;1.00;;;;;;5046581;28;20427;-74
2022/11/03 14:06:06;;;;;;;11.53;2.50;;;15.60;1.00;;;;;;5055370;28;20979;-85
2022/11/03 14:08:57;;;;;;;6.10;3.00;;;15.60;1.00;;;;;;5040589;28;20191;-84
2022/11/03 14:14:15;;;;;;;5.17;2.20;;;15.50;1.00;;;;;;5044627;28;20487;-85
2022/11/03 14:16:43;;;;;;;6.63;2.17;;;15.40;1.00;;;;;;5054193;28;20486;-85
2022/11/03 14:19:09;;;;;;;6.17;2.43;;;15.40;1.00;;;;;;5050949;28;20431;-84
2022/11/03 14:21:41;;;;;;;7.63;2.60;;;15.40;1.00;;;;;;5049456;28;20506;-85
2022/11/03 14:24:12;;;;;;;5.20;2.50;;;15.40;1.00;;;;;;5042098;28;20416;-87
2022/11/03 14:26:54;;;;;;;6.90;3.27;;;15.40;1.00;;;;;;5054644;28;20499;-85
2022/11/03 14:29:20;;;;;;;18.93;4.00;;;15.40;1.00;;;;;;5052693;28;20454;-86
2022/11/03 14:32:06;;;;;;;5.63;2.87;;;15.40;1.00;;;;;;5047358;28;20469;-87
2022/11/03 14:34:54;;;;;;;12.10;2.20;;;15.50;1.00;;;;;;5059679;28;20538;-87
2022/11/03 14:38:07;;;;;;;12.20;2.97;;;15.40;1.00;;;;;;5054246;28;20462;-87
2022/11/03 14:44:02;;;;;;;5.50;2.57;;;15.30;1.00;;;;;;5052634;28;20376;-87
2022/11/03 14:46:30;;;;;;;9.70;2.63;;;15.20;1.00;;;;;;5046317;28;20395;-86
2022/11/03 14:49:01;;;;;;;11.83;2.43;;;15.10;1.00;;;;;;5049694;28;20388;-75
2022/11/03 14:51:27;;;;;;;8.03;2.70;;;15.10;1.00;;;;;;5046371;28;20414;-75
2022/11/03 14:53:56;;;;;;;4.50;2.50;;;15.00;1.00;;;;;;5053641;28;20468;-75
2022/11/03 14:56:24;;;;;;;7.73;4.57;;;15.00;1.00;;;;;;5042073;28;20463;-75
2022/11/03 14:59:06;;;;;;;7.90;3.87;;;15.00;1.00;;;;;;5049342;28;20419;-75
2022/11/03 15:01:37;;;;;;;3.67;2.70;;;15.00;1.00;;;;;;5054696;28;20414;-74
2022/11/03 15:04:03;;;;;;;8.07;3.10;;;15.00;1.00;;;;;;5043491;28;20943;-74
2022/11/03 15:06:29;;;;;;;5.17;2.10;;;14.90;1.00;;;;;;5050698;28;20465;-74
2022/11/03 15:08:55;;;;;;;4.50;2.40;;;14.90;1.00;;;;;;5053983;28;20418;-74
2022/11/03 15:11:20;;;;;;;9.03;2.63;;;14.90;1.00;;;;;;5054235;28;20241;-74
2022/11/03 15:13:48;;;;;;;4.50;2.57;;;14.80;1.00;;;;;;5053901;28;20190;-74
2022/11/03 15:16:14;;;;;;;4.53;2.80;;;14.80;1.00;;;;;;5048376;28;20199;-74
2022/11/03 15:18:40;;;;;;;6.77;2.23;;;14.70;1.00;;;;;;5049753;28;20459;-74
2022/11/03 15:21:06;;;;;;;4.07;2.47;;;14.70;1.00;;;;;;5045612;28;20529;-74
2022/11/03 15:23:36;;;;;;;8.87;2.30;;;14.60;1.00;;;;;;5047909;28;20831;-82
2022/11/03 15:26:02;;;;;;;9.77;2.70;;;14.60;1.00;;;;;;5053546;28;20800;-74
2022/11/03 15:28:28;;;;;;;10.53;2.87;;;14.50;1.00;;;;;;5045099;28;20423;-76
2022/11/03 15:30:54;;;;;;;20.53;2.37;;;14.50;1.00;;;;;;5048162;28;20184;-76
2022/11/03 15:33:24;;;;;;;12.13;2.50;;;14.40;1.00;;;;;;5049631;28;20179;-76
2022/11/03 15:36:07;;;;;;;2.90;2.20;;;14.30;1.00;;;;;;5040170;28;20462;-77
2022/11/03 15:38:42;;;;;;;4.60;2.33;;;14.30;1.00;;;;;;5051721;28;21006;-77
2022/11/03 15:41:18;;;;;;;2.90;1.90;;;14.20;1.00;;;;;;5044558;28;20689;-77
2022/11/03 15:44:00;;;;;;;6.37;2.90;;;14.10;1.00;;;;;;5051773;28;20933;-76
2022/11/03 15:46:26;;;;;;;5.83;2.67;;;14.00;1.00;;;;;;5054003;28;20985;-75
2022/11/03 15:48:56;;;;;;;3.03;2.33;;;13.90;1.00;;;;;;5053008;28;20540;-75
2022/11/03 15:51:22;;;;;;;9.77;2.90;;;13.80;1.00;;;;;;5040197;28;20411;-74
2022/11/03 15:53:47;;;;;;;4.80;2.63;;;13.70;1.00;;;;;;5053638;28;20471;-75
2022/11/03 15:56:18;;;;;;;8.90;2.77;;;13.60;1.00;;;;;;5052749;28;20449;-75
2022/11/03 15:58:44;;;;;;;8.57;3.00;;;13.50;1.00;;;;;;5046012;28;20630;-75
2022/11/03 16:01:12;;;;;;;6.87;2.67;;;13.50;1.00;;;;;;5048403;28;20418;-75